sensor_id;sensor_type;location;lat;lon;timestamp;temperature;humidity
10451;DHT22;5273;51.290;6.918;2022-08-18T00:02:14;19.30;99.90
10451;DHT22;5273;51.290;6.918;2022-08-18T00:04:43;19.30;99.90
10451;DHT22;5273;51.290;6.918;2022-08-18T00:07:13;19.40;99.90
10451;DHT22;5273;51.290;6.918;2022-08-18T00:09:41;19.30;99.90
10451;DHT22;5273;51.290;6.918;2022-08-18T00:12:12;19.40;99.90
10451;DHT22;5273;51.290;6.918;2022-08-18T00:14:39;19.40;99.90
10451;DHT22;5273;51.290;6.918;2022-08-18T00:17:06;19.30;99.90
10451;DHT22;5273;51.290;6.918;2022-08-18T00:19:33;19.30;99.90
10451;DHT22;5273;51.290;6.918;2022-08-18T00:22:01;19.30;99.90
10451;DHT22;5273;51.290;6.918;2022-08-18T00:24:28;19.30;99.90
10451;DHT22;5273;51.290;6.918;2022-08-18T00:26:55;19.20;99.90
10451;DHT22;5273;51.290;6.918;2022-08-18T00:29:22;19.20;99.90
10451;DHT22;5273;51.290;6.918;2022-08-18T00:31:50;19.10;99.90
10451;DHT22;5273;51.290;6.918;2022-08-18T00:34:16;19.30;99.90
10451;DHT22;5273;51.290;6.918;2022-08-18T00:36:43;19.20;99.90
10451;DHT22;5273;51.290;6.918;2022-08-18T00:39:12;19.30;99.90
10451;DHT22;5273;51.290;6.918;2022-08-18T00:41:39;19.10;99.90
10451;DHT22;5273;51.290;6.918;2022-08-18T00:44:06;18.80;99.90
10451;DHT22;5273;51.290;6.918;2022-08-18T00:46:35;18.70;99.90
10451;DHT22;5273;51.290;6.918;2022-08-18T00:49:03;18.60;99.90
10451;DHT22;5273;51.290;6.918;2022-08-18T00:51:34;18.50;99.90
10451;DHT22;5273;51.290;6.918;2022-08-18T00:54:05;18.60;99.90
10451;DHT22;5273;51.290;6.918;2022-08-18T00:56:38;18.60;99.90
10451;DHT22;5273;51.290;6.918;2022-08-18T00:59:10;18.70;99.90
10451;DHT22;5273;51.290;6.918;2022-08-18T01:01:39;18.70;99.90
10451;DHT22;5273;51.290;6.918;2022-08-18T01:04:10;18.80;99.90
10451;DHT22;5273;51.290;6.918;2022-08-18T01:06:39;18.80;99.90
10451;DHT22;5273;51.290;6.918;2022-08-18T01:09:08;18.90;99.90
10451;DHT22;5273;51.290;6.918;2022-08-18T01:11:38;18.90;99.90
10451;DHT22;5273;51.290;6.918;2022-08-18T01:14:07;18.90;99.90
10451;DHT22;5273;51.290;6.918;2022-08-18T01:16:35;18.90;99.90
10451;DHT22;5273;51.290;6.918;2022-08-18T01:19:19;18.90;99.90
10451;DHT22;5273;51.290;6.918;2022-08-18T01:22:12;18.90;99.90
10451;DHT22;5273;51.290;6.918;2022-08-18T01:24:42;19.00;99.90
10451;DHT22;5273;51.290;6.918;2022-08-18T01:27:26;19.10;99.90
10451;DHT22;5273;51.290;6.918;2022-08-18T01:30:00;19.00;99.90
10451;DHT22;5273;51.290;6.918;2022-08-18T01:32:28;19.10;99.90
10451;DHT22;5273;51.290;6.918;2022-08-18T01:34:55;19.10;99.90
10451;DHT22;5273;51.290;6.918;2022-08-18T01:37:23;19.10;99.90
10451;DHT22;5273;51.290;6.918;2022-08-18T01:39:51;19.10;99.90
10451;DHT22;5273;51.290;6.918;2022-08-18T01:42:18;19.00;99.90
10451;DHT22;5273;51.290;6.918;2022-08-18T01:44:47;18.90;99.90
10451;DHT22;5273;51.290;6.918;2022-08-18T01:47:16;18.80;99.90
10451;DHT22;5273;51.290;6.918;2022-08-18T01:49:45;18.70;99.90
10451;DHT22;5273;51.290;6.918;2022-08-18T01:52:15;18.70;99.90
10451;DHT22;5273;51.290;6.918;2022-08-18T01:54:45;18.80;99.90
10451;DHT22;5273;51.290;6.918;2022-08-18T01:57:14;18.80;99.90
10451;DHT22;5273;51.290;6.918;2022-08-18T01:59:42;18.90;99.90
10451;DHT22;5273;51.290;6.918;2022-08-18T02:02:10;18.90;99.90
10451;DHT22;5273;51.290;6.918;2022-08-18T02:04:39;19.00;99.90
10451;DHT22;5273;51.290;6.918;2022-08-18T02:07:10;19.00;99.90
10451;DHT22;5273;51.290;6.918;2022-08-18T02:09:39;19.10;99.90
10451;DHT22;5273;51.290;6.918;2022-08-18T02:12:06;19.10;99.90
10451;DHT22;5273;51.290;6.918;2022-08-18T02:14:35;19.10;99.90
10451;DHT22;5273;51.290;6.918;2022-08-18T02:17:04;19.10;99.90
10451;DHT22;5273;51.290;6.918;2022-08-18T02:19:33;19.10;99.90
10451;DHT22;5273;51.290;6.918;2022-08-18T02:22:00;19.10;99.90
10451;DHT22;5273;51.290;6.918;2022-08-18T02:24:27;19.00;99.90
10451;DHT22;5273;51.290;6.918;2022-08-18T02:26:54;19.10;99.90
10451;DHT22;5273;51.290;6.918;2022-08-18T02:29:21;19.00;99.90
10451;DHT22;5273;51.290;6.918;2022-08-18T02:31:49;19.10;99.90
10451;DHT22;5273;51.290;6.918;2022-08-18T02:34:16;19.10;99.90
10451;DHT22;5273;51.290;6.918;2022-08-18T02:36:43;19.10;99.90
10451;DHT22;5273;51.290;6.918;2022-08-18T02:39:10;19.10;99.90
10451;DHT22;5273;51.290;6.918;2022-08-18T02:41:37;19.10;99.90
10451;DHT22;5273;51.290;6.918;2022-08-18T02:44:05;19.00;99.90
10451;DHT22;5273;51.290;6.918;2022-08-18T02:46:33;19.10;99.90
10451;DHT22;5273;51.290;6.918;2022-08-18T02:49:02;19.10;99.90
10451;DHT22;5273;51.290;6.918;2022-08-18T02:51:29;19.10;99.90
10451;DHT22;5273;51.290;6.918;2022-08-18T02:53:57;19.10;99.90
10451;DHT22;5273;51.290;6.918;2022-08-18T02:56:29;19.10;99.90
10451;DHT22;5273;51.290;6.918;2022-08-18T02:58:58;19.20;99.90
10451;DHT22;5273;51.290;6.918;2022-08-18T03:01:28;19.20;99.90
10451;DHT22;5273;51.290;6.918;2022-08-18T03:03:58;19.20;99.90
10451;DHT22;5273;51.290;6.918;2022-08-18T03:06:27;19.30;99.90
10451;DHT22;5273;51.290;6.918;2022-08-18T03:08:55;19.30;99.90
10451;DHT22;5273;51.290;6.918;2022-08-18T03:11:25;19.30;99.90
10451;DHT22;5273;51.290;6.918;2022-08-18T03:13:53;19.30;99.90
10451;DHT22;5273;51.290;6.918;2022-08-18T03:16:21;19.30;99.90
10451;DHT22;5273;51.290;6.918;2022-08-18T03:18:50;19.30;99.90
10451;DHT22;5273;51.290;6.918;2022-08-18T03:21:20;19.30;99.90
10451;DHT22;5273;51.290;6.918;2022-08-18T03:23:49;19.30;99.90
10451;DHT22;5273;51.290;6.918;2022-08-18T03:26:18;19.30;99.90
10451;DHT22;5273;51.290;6.918;2022-08-18T03:28:48;19.20;99.90
10451;DHT22;5273;51.290;6.918;2022-08-18T03:31:17;19.20;99.90
10451;DHT22;5273;51.290;6.918;2022-08-18T03:33:45;19.20;99.90
10451;DHT22;5273;51.290;6.918;2022-08-18T03:36:15;19.20;99.90
10451;DHT22;5273;51.290;6.918;2022-08-18T03:38:43;19.20;99.90
10451;DHT22;5273;51.290;6.918;2022-08-18T03:41:14;19.20;99.90
10451;DHT22;5273;51.290;6.918;2022-08-18T03:43:41;19.20;99.90
10451;DHT22;5273;51.290;6.918;2022-08-18T03:46:12;19.20;99.90
10451;DHT22;5273;51.290;6.918;2022-08-18T03:48:40;19.20;99.90
10451;DHT22;5273;51.290;6.918;2022-08-18T03:51:10;19.10;99.90
10451;DHT22;5273;51.290;6.918;2022-08-18T03:53:39;19.10;99.90
10451;DHT22;5273;51.290;6.918;2022-08-18T03:56:07;19.10;99.90
10451;DHT22;5273;51.290;6.918;2022-08-18T03:58:40;19.10;99.90
10451;DHT22;5273;51.290;6.918;2022-08-18T04:01:10;19.10;99.90
10451;DHT22;5273;51.290;6.918;2022-08-18T04:03:37;19.10;99.90
10451;DHT22;5273;51.290;6.918;2022-08-18T04:06:04;19.10;99.90
10451;DHT22;5273;51.290;6.918;2022-08-18T04:08:31;19.10;99.90
10451;DHT22;5273;51.290;6.918;2022-08-18T04:10:58;19.10;99.90
10451;DHT22;5273;51.290;6.918;2022-08-18T04:13:25;19.10;99.90
10451;DHT22;5273;51.290;6.918;2022-08-18T04:15:53;19.10;99.90
10451;DHT22;5273;51.290;6.918;2022-08-18T04:18:20;19.10;99.90
10451;DHT22;5273;51.290;6.918;2022-08-18T04:20:47;19.20;99.90
10451;DHT22;5273;51.290;6.918;2022-08-18T04:23:13;19.10;99.90
10451;DHT22;5273;51.290;6.918;2022-08-18T04:25:41;19.20;99.90
10451;DHT22;5273;51.290;6.918;2022-08-18T04:28:08;19.20;99.90
10451;DHT22;5273;51.290;6.918;2022-08-18T04:30:35;19.20;99.90
10451;DHT22;5273;51.290;6.918;2022-08-18T04:33:04;19.20;99.90
10451;DHT22;5273;51.290;6.918;2022-08-18T04:35:30;19.20;99.90
10451;DHT22;5273;51.290;6.918;2022-08-18T04:37:58;19.10;99.90
10451;DHT22;5273;51.290;6.918;2022-08-18T04:40:25;19.10;99.90
10451;DHT22;5273;51.290;6.918;2022-08-18T04:42:52;19.10;99.90
10451;DHT22;5273;51.290;6.918;2022-08-18T04:45:19;19.10;99.90
10451;DHT22;5273;51.290;6.918;2022-08-18T04:47:46;19.20;99.90
10451;DHT22;5273;51.290;6.918;2022-08-18T04:50:14;19.20;99.90
10451;DHT22;5273;51.290;6.918;2022-08-18T04:52:42;19.20;99.90
10451;DHT22;5273;51.290;6.918;2022-08-18T04:55:26;19.20;99.90
10451;DHT22;5273;51.290;6.918;2022-08-18T04:57:54;19.30;99.90
10451;DHT22;5273;51.290;6.918;2022-08-18T05:00:21;19.20;99.90
10451;DHT22;5273;51.290;6.918;2022-08-18T05:02:48;19.40;99.90
10451;DHT22;5273;51.290;6.918;2022-08-18T05:05:16;19.40;99.90
10451;DHT22;5273;51.290;6.918;2022-08-18T05:07:45;19.40;99.90
10451;DHT22;5273;51.290;6.918;2022-08-18T05:10:12;19.40;99.90
10451;DHT22;5273;51.290;6.918;2022-08-18T05:12:41;19.40;99.90
10451;DHT22;5273;51.290;6.918;2022-08-18T05:15:09;19.40;99.90
10451;DHT22;5273;51.290;6.918;2022-08-18T05:17:36;19.40;99.90
10451;DHT22;5273;51.290;6.918;2022-08-18T05:20:05;19.40;99.90
10451;DHT22;5273;51.290;6.918;2022-08-18T05:22:37;19.40;99.90
10451;DHT22;5273;51.290;6.918;2022-08-18T05:25:06;19.50;99.90
10451;DHT22;5273;51.290;6.918;2022-08-18T05:27:34;19.50;99.90
10451;DHT22;5273;51.290;6.918;2022-08-18T05:30:03;19.50;99.90
10451;DHT22;5273;51.290;6.918;2022-08-18T05:32:32;19.60;99.90
10451;DHT22;5273;51.290;6.918;2022-08-18T05:35:02;19.60;99.90
10451;DHT22;5273;51.290;6.918;2022-08-18T05:37:35;19.70;99.90
10451;DHT22;5273;51.290;6.918;2022-08-18T05:40:06;19.70;99.90
10451;DHT22;5273;51.290;6.918;2022-08-18T05:42:35;19.70;99.90
10451;DHT22;5273;51.290;6.918;2022-08-18T05:45:07;19.70;99.90
10451;DHT22;5273;51.290;6.918;2022-08-18T05:47:35;19.80;99.90
10451;DHT22;5273;51.290;6.918;2022-08-18T05:50:05;19.80;99.90
10451;DHT22;5273;51.290;6.918;2022-08-18T05:52:36;19.90;99.90
10451;DHT22;5273;51.290;6.918;2022-08-18T05:55:09;20.00;99.90
10451;DHT22;5273;51.290;6.918;2022-08-18T05:58:00;20.10;99.90
10451;DHT22;5273;51.290;6.918;2022-08-18T06:00:30;20.20;99.90
10451;DHT22;5273;51.290;6.918;2022-08-18T06:03:02;20.30;99.90
10451;DHT22;5273;51.290;6.918;2022-08-18T06:05:35;20.30;99.90
10451;DHT22;5273;51.290;6.918;2022-08-18T06:08:08;20.40;99.90
10451;DHT22;5273;51.290;6.918;2022-08-18T06:10:40;20.30;99.90
10451;DHT22;5273;51.290;6.918;2022-08-18T06:13:09;20.30;99.90
10451;DHT22;5273;51.290;6.918;2022-08-18T06:15:49;20.30;99.90
10451;DHT22;5273;51.290;6.918;2022-08-18T06:18:34;20.30;99.90
10451;DHT22;5273;51.290;6.918;2022-08-18T06:21:18;20.30;99.90
10451;DHT22;5273;51.290;6.918;2022-08-18T06:23:53;20.20;99.90
10451;DHT22;5273;51.290;6.918;2022-08-18T06:26:30;20.20;99.90
10451;DHT22;5273;51.290;6.918;2022-08-18T06:29:11;20.20;99.90
10451;DHT22;5273;51.290;6.918;2022-08-18T06:31:44;20.20;99.90
10451;DHT22;5273;51.290;6.918;2022-08-18T06:34:23;20.20;99.90
10451;DHT22;5273;51.290;6.918;2022-08-18T06:36:54;20.20;99.90
10451;DHT22;5273;51.290;6.918;2022-08-18T06:39:30;20.20;99.90
10451;DHT22;5273;51.290;6.918;2022-08-18T06:41:59;20.20;99.90
10451;DHT22;5273;51.290;6.918;2022-08-18T06:44:33;20.20;99.90
10451;DHT22;5273;51.290;6.918;2022-08-18T06:47:07;20.20;99.90
10451;DHT22;5273;51.290;6.918;2022-08-18T06:49:40;20.20;99.90
10451;DHT22;5273;51.290;6.918;2022-08-18T06:52:26;20.20;99.90
10451;DHT22;5273;51.290;6.918;2022-08-18T06:54:55;20.20;99.90
10451;DHT22;5273;51.290;6.918;2022-08-18T06:57:30;20.20;99.90
10451;DHT22;5273;51.290;6.918;2022-08-18T07:00:00;20.20;99.90
10451;DHT22;5273;51.290;6.918;2022-08-18T07:02:41;20.20;99.90
10451;DHT22;5273;51.290;6.918;2022-08-18T07:05:24;20.20;99.90
10451;DHT22;5273;51.290;6.918;2022-08-18T07:08:08;20.20;99.90
10451;DHT22;5273;51.290;6.918;2022-08-18T07:10:38;20.20;99.90
10451;DHT22;5273;51.290;6.918;2022-08-18T07:13:14;20.30;99.90
10451;DHT22;5273;51.290;6.918;2022-08-18T07:15:41;20.10;99.90
10451;DHT22;5273;51.290;6.918;2022-08-18T07:18:12;20.10;99.90
10451;DHT22;5273;51.290;6.918;2022-08-18T07:20:43;20.10;99.90
10451;DHT22;5273;51.290;6.918;2022-08-18T07:23:22;20.20;99.90
10451;DHT22;5273;51.290;6.918;2022-08-18T07:25:57;20.20;99.90
10451;DHT22;5273;51.290;6.918;2022-08-18T07:28:32;20.10;99.90
10451;DHT22;5273;51.290;6.918;2022-08-18T07:31:33;20.20;99.90
10451;DHT22;5273;51.290;6.918;2022-08-18T07:34:03;20.10;99.90
10451;DHT22;5273;51.290;6.918;2022-08-18T07:36:34;20.10;99.90
10451;DHT22;5273;51.290;6.918;2022-08-18T07:41:51;20.20;99.90
10451;DHT22;5273;51.290;6.918;2022-08-18T07:44:27;20.20;99.90
10451;DHT22;5273;51.290;6.918;2022-08-18T07:47:00;20.20;99.90
10451;DHT22;5273;51.290;6.918;2022-08-18T07:49:31;20.20;99.90
10451;DHT22;5273;51.290;6.918;2022-08-18T07:52:04;20.20;99.90
10451;DHT22;5273;51.290;6.918;2022-08-18T07:54:46;20.20;99.90
10451;DHT22;5273;51.290;6.918;2022-08-18T07:57:22;20.30;99.90
10451;DHT22;5273;51.290;6.918;2022-08-18T07:59:59;20.30;99.90
10451;DHT22;5273;51.290;6.918;2022-08-18T08:02:38;20.30;99.90
10451;DHT22;5273;51.290;6.918;2022-08-18T08:05:11;20.30;99.90
10451;DHT22;5273;51.290;6.918;2022-08-18T08:07:49;20.30;99.90
10451;DHT22;5273;51.290;6.918;2022-08-18T08:10:33;20.40;99.90
10451;DHT22;5273;51.290;6.918;2022-08-18T08:13:11;20.40;99.90
10451;DHT22;5273;51.290;6.918;2022-08-18T08:15:52;20.40;99.90
10451;DHT22;5273;51.290;6.918;2022-08-18T08:18:27;20.50;99.90
10451;DHT22;5273;51.290;6.918;2022-08-18T08:21:02;20.60;99.90
10451;DHT22;5273;51.290;6.918;2022-08-18T08:23:37;20.60;99.90
10451;DHT22;5273;51.290;6.918;2022-08-18T08:26:30;20.70;99.90
10451;DHT22;5273;51.290;6.918;2022-08-18T08:29:11;20.70;99.90
10451;DHT22;5273;51.290;6.918;2022-08-18T08:31:47;20.90;99.90
10451;DHT22;5273;51.290;6.918;2022-08-18T08:34:18;21.10;99.90
10451;DHT22;5273;51.290;6.918;2022-08-18T08:36:47;21.30;99.90
10451;DHT22;5273;51.290;6.918;2022-08-18T08:39:19;21.60;99.90
10451;DHT22;5273;51.290;6.918;2022-08-18T08:41:53;22.00;99.90
10451;DHT22;5273;51.290;6.918;2022-08-18T08:44:26;22.40;99.90
10451;DHT22;5273;51.290;6.918;2022-08-18T08:46:59;22.70;99.90
10451;DHT22;5273;51.290;6.918;2022-08-18T08:49:34;22.90;99.90
10451;DHT22;5273;51.290;6.918;2022-08-18T08:52:06;23.00;99.90
10451;DHT22;5273;51.290;6.918;2022-08-18T08:54:41;23.10;99.90
10451;DHT22;5273;51.290;6.918;2022-08-18T08:57:10;23.20;99.90
10451;DHT22;5273;51.290;6.918;2022-08-18T08:59:39;23.40;99.90
10451;DHT22;5273;51.290;6.918;2022-08-18T09:02:21;23.70;99.90
10451;DHT22;5273;51.290;6.918;2022-08-18T09:04:54;24.10;99.90
10451;DHT22;5273;51.290;6.918;2022-08-18T09:07:40;24.40;98.90
10451;DHT22;5273;51.290;6.918;2022-08-18T09:13:38;24.80;97.00
10451;DHT22;5273;51.290;6.918;2022-08-18T09:16:21;25.00;95.60
10451;DHT22;5273;51.290;6.918;2022-08-18T09:19:08;25.10;94.70
10451;DHT22;5273;51.290;6.918;2022-08-18T09:21:42;25.20;94.40
10451;DHT22;5273;51.290;6.918;2022-08-18T09:24:20;25.30;94.40
10451;DHT22;5273;51.290;6.918;2022-08-18T09:26:50;25.60;94.20
10451;DHT22;5273;51.290;6.918;2022-08-18T09:29:23;25.90;92.30
10451;DHT22;5273;51.290;6.918;2022-08-18T09:35:40;26.80;89.70
10451;DHT22;5273;51.290;6.918;2022-08-18T09:38:13;26.90;86.30
10451;DHT22;5273;51.290;6.918;2022-08-18T09:41:04;26.80;84.60
10451;DHT22;5273;51.290;6.918;2022-08-18T09:44:00;26.80;85.30
10451;DHT22;5273;51.290;6.918;2022-08-18T09:46:52;26.80;85.40
10451;DHT22;5273;51.290;6.918;2022-08-18T09:49:50;26.80;85.00
10451;DHT22;5273;51.290;6.918;2022-08-18T09:55:56;26.80;84.50
10451;DHT22;5273;51.290;6.918;2022-08-18T09:58:50;26.70;84.30
10451;DHT22;5273;51.290;6.918;2022-08-18T10:01:30;26.70;85.20
10451;DHT22;5273;51.290;6.918;2022-08-18T10:04:27;26.80;86.00
10451;DHT22;5273;51.290;6.918;2022-08-18T10:07:14;27.20;83.90
10451;DHT22;5273;51.290;6.918;2022-08-18T10:10:03;27.60;83.00
10451;DHT22;5273;51.290;6.918;2022-08-18T10:15:31;28.70;76.60
10451;DHT22;5273;51.290;6.918;2022-08-18T10:18:19;28.90;72.00
10451;DHT22;5273;51.290;6.918;2022-08-18T10:20:58;28.90;70.30
10451;DHT22;5273;51.290;6.918;2022-08-18T10:23:49;28.70;71.60
10451;DHT22;5273;51.290;6.918;2022-08-18T10:29:54;28.20;73.60
10451;DHT22;5273;51.290;6.918;2022-08-18T10:32:43;27.80;73.80
10451;DHT22;5273;51.290;6.918;2022-08-18T10:38:44;27.40;74.80
10451;DHT22;5273;51.290;6.918;2022-08-18T10:41:28;27.20;75.90
10451;DHT22;5273;51.290;6.918;2022-08-18T10:43:56;27.20;75.80
10451;DHT22;5273;51.290;6.918;2022-08-18T10:46:27;27.10;76.10
10451;DHT22;5273;51.290;6.918;2022-08-18T10:49:03;27.10;75.70
10451;DHT22;5273;51.290;6.918;2022-08-18T10:51:48;27.10;75.30
10451;DHT22;5273;51.290;6.918;2022-08-18T10:54:25;27.20;74.70
10451;DHT22;5273;51.290;6.918;2022-08-18T10:57:03;27.40;75.10
10451;DHT22;5273;51.290;6.918;2022-08-18T10:59:38;27.70;74.10
10451;DHT22;5273;51.290;6.918;2022-08-18T11:02:18;28.00;73.50
10451;DHT22;5273;51.290;6.918;2022-08-18T11:04:49;28.30;72.00
10451;DHT22;5273;51.290;6.918;2022-08-18T11:07:19;28.50;71.20
10451;DHT22;5273;51.290;6.918;2022-08-18T11:09:48;28.70;70.30
10451;DHT22;5273;51.290;6.918;2022-08-18T11:12:39;28.80;69.50
10451;DHT22;5273;51.290;6.918;2022-08-18T11:15:16;28.80;68.20
10451;DHT22;5273;51.290;6.918;2022-08-18T11:18:00;28.80;67.30
10451;DHT22;5273;51.290;6.918;2022-08-18T11:20:31;28.80;68.40
10451;DHT22;5273;51.290;6.918;2022-08-18T11:23:00;28.90;68.90
10451;DHT22;5273;51.290;6.918;2022-08-18T11:25:29;28.90;66.90
10451;DHT22;5273;51.290;6.918;2022-08-18T11:27:57;29.00;68.10
10451;DHT22;5273;51.290;6.918;2022-08-18T11:30:28;29.00;67.20
10451;DHT22;5273;51.290;6.918;2022-08-18T11:32:57;29.00;66.70
10451;DHT22;5273;51.290;6.918;2022-08-18T11:35:29;29.10;67.20
10451;DHT22;5273;51.290;6.918;2022-08-18T11:37:58;29.20;64.90
10451;DHT22;5273;51.290;6.918;2022-08-18T11:40:31;29.30;65.00
10451;DHT22;5273;51.290;6.918;2022-08-18T11:43:03;29.40;65.30
10451;DHT22;5273;51.290;6.918;2022-08-18T11:45:33;29.40;64.30
10451;DHT22;5273;51.290;6.918;2022-08-18T11:48:15;29.50;63.90
10451;DHT22;5273;51.290;6.918;2022-08-18T11:50:48;29.60;62.80
10451;DHT22;5273;51.290;6.918;2022-08-18T11:53:23;29.50;63.30
10451;DHT22;5273;51.290;6.918;2022-08-18T11:56:10;29.50;61.90
10451;DHT22;5273;51.290;6.918;2022-08-18T11:58:38;29.50;62.70
10451;DHT22;5273;51.290;6.918;2022-08-18T12:01:05;29.50;62.40
10451;DHT22;5273;51.290;6.918;2022-08-18T12:03:39;29.40;62.70
10451;DHT22;5273;51.290;6.918;2022-08-18T12:06:16;29.30;62.60
10451;DHT22;5273;51.290;6.918;2022-08-18T12:08:51;29.20;62.50
10451;DHT22;5273;51.290;6.918;2022-08-18T12:11:20;29.10;63.10
10451;DHT22;5273;51.290;6.918;2022-08-18T12:13:57;28.90;62.60
10451;DHT22;5273;51.290;6.918;2022-08-18T12:16:31;28.60;65.00
10451;DHT22;5273;51.290;6.918;2022-08-18T12:19:00;28.30;66.00
10451;DHT22;5273;51.290;6.918;2022-08-18T12:21:27;28.20;66.20
10451;DHT22;5273;51.290;6.918;2022-08-18T12:23:54;28.00;64.70
10451;DHT22;5273;51.290;6.918;2022-08-18T12:26:21;27.80;66.30
10451;DHT22;5273;51.290;6.918;2022-08-18T12:28:48;27.70;66.80
10451;DHT22;5273;51.290;6.918;2022-08-18T12:31:15;27.60;67.70
10451;DHT22;5273;51.290;6.918;2022-08-18T12:33:42;27.60;67.60
10451;DHT22;5273;51.290;6.918;2022-08-18T12:36:10;27.60;68.40
10451;DHT22;5273;51.290;6.918;2022-08-18T12:38:38;27.60;68.60
10451;DHT22;5273;51.290;6.918;2022-08-18T12:41:05;27.60;68.90
10451;DHT22;5273;51.290;6.918;2022-08-18T12:43:36;27.60;69.40
10451;DHT22;5273;51.290;6.918;2022-08-18T12:46:04;27.70;69.60
10451;DHT22;5273;51.290;6.918;2022-08-18T12:48:31;27.80;68.00
10451;DHT22;5273;51.290;6.918;2022-08-18T12:50:58;27.80;67.70
10451;DHT22;5273;51.290;6.918;2022-08-18T12:53:26;28.00;67.70
10451;DHT22;5273;51.290;6.918;2022-08-18T12:55:53;28.10;67.40
10451;DHT22;5273;51.290;6.918;2022-08-18T12:58:20;28.10;66.50
10451;DHT22;5273;51.290;6.918;2022-08-18T13:00:47;28.20;66.90
10451;DHT22;5273;51.290;6.918;2022-08-18T13:03:14;28.20;67.70
10451;DHT22;5273;51.290;6.918;2022-08-18T13:05:41;28.30;67.40
10451;DHT22;5273;51.290;6.918;2022-08-18T13:08:15;28.40;66.90
10451;DHT22;5273;51.290;6.918;2022-08-18T13:10:44;28.60;68.60
10451;DHT22;5273;51.290;6.918;2022-08-18T13:13:10;28.70;66.60
10451;DHT22;5273;51.290;6.918;2022-08-18T13:15:38;28.80;67.60
10451;DHT22;5273;51.290;6.918;2022-08-18T13:18:05;28.90;64.80
10451;DHT22;5273;51.290;6.918;2022-08-18T13:20:32;29.10;64.80
10451;DHT22;5273;51.290;6.918;2022-08-18T13:23:01;29.20;63.40
10451;DHT22;5273;51.290;6.918;2022-08-18T13:25:27;29.20;62.90
10451;DHT22;5273;51.290;6.918;2022-08-18T13:27:56;29.20;61.70
10451;DHT22;5273;51.290;6.918;2022-08-18T13:30:23;29.30;61.40
10451;DHT22;5273;51.290;6.918;2022-08-18T13:32:50;29.30;60.90
10451;DHT22;5273;51.290;6.918;2022-08-18T13:35:17;29.40;61.10
10451;DHT22;5273;51.290;6.918;2022-08-18T13:37:44;29.40;60.60
10451;DHT22;5273;51.290;6.918;2022-08-18T13:40:11;29.50;61.10
10451;DHT22;5273;51.290;6.918;2022-08-18T13:42:44;29.60;59.80
10451;DHT22;5273;51.290;6.918;2022-08-18T13:45:15;29.60;60.00
10451;DHT22;5273;51.290;6.918;2022-08-18T13:47:43;29.70;59.10
10451;DHT22;5273;51.290;6.918;2022-08-18T13:50:11;29.80;59.20
10451;DHT22;5273;51.290;6.918;2022-08-18T13:52:39;29.90;59.50
10451;DHT22;5273;51.290;6.918;2022-08-18T13:55:08;29.90;58.80
10451;DHT22;5273;51.290;6.918;2022-08-18T13:57:36;29.90;58.80
10451;DHT22;5273;51.290;6.918;2022-08-18T14:00:06;29.90;58.50
10451;DHT22;5273;51.290;6.918;2022-08-18T14:02:37;29.90;57.90
10451;DHT22;5273;51.290;6.918;2022-08-18T14:05:05;29.80;57.80
10451;DHT22;5273;51.290;6.918;2022-08-18T14:07:33;29.70;57.90
10451;DHT22;5273;51.290;6.918;2022-08-18T14:10:00;29.70;58.70
10451;DHT22;5273;51.290;6.918;2022-08-18T14:12:27;29.60;58.10
10451;DHT22;5273;51.290;6.918;2022-08-18T14:14:55;29.50;59.30
10451;DHT22;5273;51.290;6.918;2022-08-18T14:17:22;29.40;58.00
10451;DHT22;5273;51.290;6.918;2022-08-18T14:19:51;29.50;58.30
10451;DHT22;5273;51.290;6.918;2022-08-18T14:22:35;29.20;59.10
10451;DHT22;5273;51.290;6.918;2022-08-18T14:25:20;29.20;58.80
10451;DHT22;5273;51.290;6.918;2022-08-18T14:28:04;29.00;58.80
10451;DHT22;5273;51.290;6.918;2022-08-18T14:30:32;29.00;59.10
10451;DHT22;5273;51.290;6.918;2022-08-18T14:32:59;28.80;57.70
10451;DHT22;5273;51.290;6.918;2022-08-18T14:35:27;28.80;57.60
10451;DHT22;5273;51.290;6.918;2022-08-18T14:37:54;28.70;57.80
10451;DHT22;5273;51.290;6.918;2022-08-18T14:40:21;28.80;57.80
10451;DHT22;5273;51.290;6.918;2022-08-18T14:42:48;28.80;56.20
10451;DHT22;5273;51.290;6.918;2022-08-18T14:45:15;28.90;56.90
10451;DHT22;5273;51.290;6.918;2022-08-18T14:47:42;28.90;57.10
10451;DHT22;5273;51.290;6.918;2022-08-18T14:50:09;28.90;56.40
10451;DHT22;5273;51.290;6.918;2022-08-18T14:52:39;28.90;54.90
10451;DHT22;5273;51.290;6.918;2022-08-18T14:55:08;28.80;54.80
10451;DHT22;5273;51.290;6.918;2022-08-18T14:57:36;28.80;55.10
10451;DHT22;5273;51.290;6.918;2022-08-18T15:00:05;28.70;56.60
10451;DHT22;5273;51.290;6.918;2022-08-18T15:02:33;28.60;56.90
10451;DHT22;5273;51.290;6.918;2022-08-18T15:05:00;28.60;57.10
10451;DHT22;5273;51.290;6.918;2022-08-18T15:07:27;28.50;56.80
10451;DHT22;5273;51.290;6.918;2022-08-18T15:09:55;28.50;57.10
10451;DHT22;5273;51.290;6.918;2022-08-18T15:12:23;28.50;57.00
10451;DHT22;5273;51.290;6.918;2022-08-18T15:14:51;28.60;56.30
10451;DHT22;5273;51.290;6.918;2022-08-18T15:17:17;28.60;56.70
10451;DHT22;5273;51.290;6.918;2022-08-18T15:19:44;28.60;57.30
10451;DHT22;5273;51.290;6.918;2022-08-18T15:22:13;28.60;56.20
10451;DHT22;5273;51.290;6.918;2022-08-18T15:24:59;28.60;55.80
10451;DHT22;5273;51.290;6.918;2022-08-18T15:27:43;28.60;55.10
10451;DHT22;5273;51.290;6.918;2022-08-18T15:30:13;28.50;56.10
10451;DHT22;5273;51.290;6.918;2022-08-18T15:32:41;28.40;55.80
10451;DHT22;5273;51.290;6.918;2022-08-18T15:35:10;28.50;55.70
10451;DHT22;5273;51.290;6.918;2022-08-18T15:37:36;28.50;55.90
10451;DHT22;5273;51.290;6.918;2022-08-18T15:40:11;28.50;56.20
10451;DHT22;5273;51.290;6.918;2022-08-18T15:42:42;28.50;56.20
10451;DHT22;5273;51.290;6.918;2022-08-18T15:45:11;28.50;56.70
10451;DHT22;5273;51.290;6.918;2022-08-18T15:47:40;28.40;56.30
10451;DHT22;5273;51.290;6.918;2022-08-18T15:50:08;28.40;56.60
10451;DHT22;5273;51.290;6.918;2022-08-18T15:52:35;28.20;57.30
10451;DHT22;5273;51.290;6.918;2022-08-18T15:55:02;28.20;56.30
10451;DHT22;5273;51.290;6.918;2022-08-18T15:57:31;28.10;57.10
10451;DHT22;5273;51.290;6.918;2022-08-18T15:59:59;28.10;57.40
10451;DHT22;5273;51.290;6.918;2022-08-18T16:02:26;28.10;58.00
10451;DHT22;5273;51.290;6.918;2022-08-18T16:04:53;28.10;57.90
10451;DHT22;5273;51.290;6.918;2022-08-18T16:07:20;28.00;57.90
10451;DHT22;5273;51.290;6.918;2022-08-18T16:09:47;27.90;57.70
10451;DHT22;5273;51.290;6.918;2022-08-18T16:12:14;27.80;58.40
10451;DHT22;5273;51.290;6.918;2022-08-18T16:14:42;27.70;58.10
10451;DHT22;5273;51.290;6.918;2022-08-18T16:17:09;27.60;59.60
10451;DHT22;5273;51.290;6.918;2022-08-18T16:19:36;27.50;59.60
10451;DHT22;5273;51.290;6.918;2022-08-18T16:22:03;27.50;59.30
10451;DHT22;5273;51.290;6.918;2022-08-18T16:24:32;27.40;59.20
10451;DHT22;5273;51.290;6.918;2022-08-18T16:26:58;27.40;59.60
10451;DHT22;5273;51.290;6.918;2022-08-18T16:29:25;27.30;59.50
10451;DHT22;5273;51.290;6.918;2022-08-18T16:31:53;27.30;60.50
10451;DHT22;5273;51.290;6.918;2022-08-18T16:34:20;27.30;60.90
10451;DHT22;5273;51.290;6.918;2022-08-18T16:36:47;27.30;60.30